KPAH

Barkley Regional Airport

Paducah, Kentucky, USA
METAR KPAH 121753Z 22012G22KT 10SM CLR 12/04 A2997 RMK AO2 PK WND 24026/1704 SLP149 T01220039 10128 20056 58019
Observed Flight Rules
Dec-12 @ 17:53 UTC (55 minutes ago) Visual Flight Rules
Wind Visibility Clouds
220° at 12 knots
 Gusting to 22 knots
10 miles
  • Clear skies
Temperatures Readings
Current 12°C / 54°F
Dewpoint 4°C / 39°F
Humidity 58%
Altimeter 29.97" Hg
Pressure 1014.9 hPa
Elevation 119
METAR KPAH 121753Z 22012G22KT 10SM CLR 12/04 A2997 RMK AO2 PK WND 24026/1704 SLP149 T01220039 10128 20056 58019
Observed Flight Rules
Dec-12 @ 17:53 UTC
(55 minutes ago)
VFR
Wind Visibility
220° at 12 knots
 Gusting to 22 knots
10 miles
Clouds
  • Clear skies
Temperature Dewpoint
12°C / 54°F 4°C / 39°F
Humidity Altimeter Pressure
58% 29.97" Hg 1014.9 hPa